Time;durP1;ratioP1;P1;durP2;ratioP2;P2;SDS_P1;SDS_P2;PMS_P1;PMS_P2;Temp;Humidity;BMP_temperature;BMP_pressure;BME280_temperature;BME280_humidity;BME280_pressure;Samples;Min_cycle;Max_cycle;Signal;HPM_P1;HPM_P2
2023/08/26 00:01:57;;;;;;;;;;;;;;;-140.72;100.00;52648.56;6276822;22;19982;-69
2023/08/26 00:04:22;;;;;;;;;;;;;;;-140.72;100.00;52693.22;6275055;22;19960;-69
2023/08/26 00:06:47;;;;;;;;;;;;;;;-140.72;100.00;52668.84;6275750;22;19986;-69
2023/08/26 00:09:15;;;;;;;;;;;;;;;-140.72;100.00;52646.53;6277472;22;19911;-69
2023/08/26 00:11:41;;;;;;;;;;;;;;;-140.72;100.00;52666.84;6277548;22;20328;-69
2023/08/26 00:14:06;;;;;;;;;;;;;;;-140.72;100.00;52676.97;6277736;22;19921;-69
2023/08/26 00:16:31;;;;;;;;;;;;;;;-140.72;100.00;52685.09;6302732;22;19915;-69
2023/08/26 00:18:59;;;;;;;;;;;;;;;-140.72;100.00;52666.84;6302927;22;19919;-69
2023/08/26 00:21:24;;;;;;;;;;;;;;;-140.72;100.00;52695.25;6277282;22;19991;-69
2023/08/26 00:23:50;;;;;;;;;;;;;;;-140.72;100.00;52679.00;6277043;22;19950;-69
2023/08/26 00:26:16;;;;;;;;;;;;;;;-140.72;100.00;52760.19;6277497;22;19970;-69
2023/08/26 00:28:42;;;;;;;;;;;;;;;-140.72;100.00;52699.31;6276956;22;19986;-69
2023/08/26 00:31:07;;;;;;;;;;;;;;;-140.72;100.00;52727.72;6278602;22;19964;-69
2023/08/26 00:33:34;;;;;;;;;;;;;;;-140.72;100.00;52672.91;6275986;22;20290;-69
2023/08/26 00:36:00;;;;;;;;;;;;;;;-140.72;100.00;52721.63;6278726;22;19961;-69
2023/08/26 00:38:25;;;;;;;;;;;;;;;-140.72;100.00;52725.69;6278790;22;19912;-69
2023/08/26 00:40:50;;;;;;;;;;;;;;;-140.72;100.00;52739.88;6278649;22;20324;-68
2023/08/26 00:43:16;;;;;;;;;;;;;;;-140.72;100.00;52723.66;6278244;22;19911;-68
2023/08/26 00:45:43;;;;;;;;;;;;;;;-140.72;100.00;52701.31;6276975;22;19963;-69
2023/08/26 00:48:12;;;;;;;;;;;;;;;-140.72;100.00;52699.31;6277900;22;19911;-69
2023/08/26 00:50:41;;;;;;;;;;;;;;;-140.72;100.00;52721.63;6278656;22;19998;-69
2023/08/26 00:53:09;;;;;;;;;;;;;;;-140.72;100.00;52743.94;6301781;22;19915;-69
2023/08/26 00:55:42;;;;;;;;;;;;;;;-140.72;100.00;52719.59;6301824;22;19911;-69
2023/08/26 00:58:08;;;;;;;;;;;;;;;-140.72;100.00;52727.72;6276528;22;19915;-69
2023/08/26 01:00:36;;;;;;;;;;;;;;;-140.72;100.00;52745.97;6278375;22;19919;-69
2023/08/26 01:03:04;;;;;;;;;;;;;;;-140.72;100.00;52711.47;6278453;22;19941;-69
2023/08/26 01:05:29;;;;;;;;;;;;;;;-140.72;100.00;52743.94;6278018;22;19911;-69
2023/08/26 01:07:55;;;;;;;;;;;;;;;-140.72;100.00;52760.19;6278300;22;19986;-68
2023/08/26 01:10:23;;;;;;;;;;;;;;;-140.72;100.00;52737.84;6276329;22;20390;-69
2023/08/26 01:13:06;;;;;;;;;;;;;;;-140.72;100.00;52762.22;6277258;22;19912;-69
2023/08/26 01:15:34;;;;;;;;;;;;;;;-140.72;100.00;52723.66;6302144;22;19914;-69
2023/08/26 01:18:05;;;;;;;;;;;;;;;-140.72;100.00;52727.72;6276067;22;19934;-69
2023/08/26 01:20:30;;;;;;;;;;;;;;;-140.72;100.00;52758.16;6276877;22;19951;-69
2023/08/26 01:22:58;;;;;;;;;;;;;;;-140.72;100.00;52743.94;6278141;22;20324;-68
2023/08/26 01:25:23;;;;;;;;;;;;;;;-140.72;100.00;52735.81;6278732;22;20351;-68
2023/08/26 01:27:49;;;;;;;;;;;;;;;-140.72;100.00;52760.19;6277972;22;19912;-68
2023/08/26 01:30:14;;;;;;;;;;;;;;;-140.72;100.00;52748.00;6277942;22;19919;-68
2023/08/26 01:32:48;;;;;;;;;;;;;;;-140.72;100.00;52752.06;6277801;22;19915;-68
2023/08/26 01:35:15;;;;;;;;;;;;;;;-140.72;100.00;52762.22;6277939;22;19912;-68
2023/08/26 01:37:43;;;;;;;;;;;;;;;-140.72;100.00;52739.88;6277686;22;19915;-68
2023/08/26 01:40:09;;;;;;;;;;;;;;;-140.72;100.00;52770.31;6278039;22;19942;-68
2023/08/26 01:42:40;;;;;;;;;;;;;;;-140.72;100.00;52729.75;6275785;22;19986;-68
2023/08/26 01:45:06;;;;;;;;;;;;;;;-140.72;100.00;52756.13;6278048;22;19911;-68
2023/08/26 01:47:31;;;;;;;;;;;;;;;-140.72;100.00;52758.16;6279029;22;20367;-68
2023/08/26 01:50:24;;;;;;;;;;;;;;;-140.72;100.00;52748.00;6278480;22;19915;-69
2023/08/26 01:52:50;;;;;;;;;;;;;;;-140.72;100.00;52741.91;6276265;22;19915;-69
2023/08/26 01:55:15;;;;;;;;;;;;;;;-140.72;100.00;52727.72;6276335;22;19946;-68
2023/08/26 01:57:40;;;;;;;;;;;;;;;-140.72;100.00;52766.25;6277315;22;20324;-68
2023/08/26 02:00:06;;;;;;;;;;;;;;;-140.72;100.00;52760.19;6277932;22;20404;-69
2023/08/26 02:02:31;;;;;;;;;;;;;;;-140.72;100.00;52735.81;6301771;22;20221;-69
2023/08/26 02:04:56;;;;;;;;;;;;;;;-140.72;100.00;52760.19;6277466;22;19926;-69
2023/08/26 02:07:21;;;;;;;;;;;;;;;-140.72;100.00;52748.00;6276153;22;19941;-69
2023/08/26 02:09:47;;;;;;;;;;;;;;;-140.72;100.00;52752.06;6277856;22;19918;-69
2023/08/26 02:12:12;;;;;;;;;;;;;;;-140.72;100.00;52743.94;6277317;22;19911;-69
2023/08/26 02:14:37;;;;;;;;;;;;;;;-140.72;100.00;52735.81;6276036;22;19911;-69
2023/08/26 02:17:02;;;;;;;;;;;;;;;-140.72;100.00;52760.19;6301932;22;19918;-69
2023/08/26 02:19:28;;;;;;;;;;;;;;;-140.72;100.00;52737.84;6277633;22;19959;-70
2023/08/26 02:21:53;;;;;;;;;;;;;;;-140.72;100.00;52772.34;6277778;22;20045;-69
2023/08/26 02:24:18;;;;;;;;;;;;;;;-140.72;100.00;52709.44;6277562;22;19918;-69
2023/08/26 02:26:43;;;;;;;;;;;;;;;-140.72;100.00;52739.88;6277639;22;19918;-69
2023/08/26 02:29:09;;;;;;;;;;;;;;;-140.72;100.00;52745.97;6276889;22;20286;-69
2023/08/26 02:31:34;;;;;;;;;;;;;;;-140.72;100.00;52713.50;6301668;22;19947;-69
2023/08/26 02:34:06;;;;;;;;;;;;;;;-140.72;100.00;52739.88;6274625;22;19915;-68
2023/08/26 02:36:32;;;;;;;;;;;;;;;-140.72;100.00;52745.97;6277893;22;20004;-68
2023/08/26 02:38:57;;;;;;;;;;;;;;;-140.72;100.00;52733.78;6277500;22;19911;-69
2023/08/26 02:41:26;;;;;;;;;;;;;;;-140.72;100.00;52727.72;6301738;22;20025;-69
2023/08/26 02:43:51;;;;;;;;;;;;;;;-140.72;100.00;52723.66;6277277;22;19915;-69
2023/08/26 02:46:17;;;;;;;;;;;;;;;-140.72;100.00;52719.59;6301718;22;20252;-69
2023/08/26 02:48:42;;;;;;;;;;;;;;;-140.72;100.00;52748.00;6277444;22;19933;-69
2023/08/26 02:51:08;;;;;;;;;;;;;;;-140.72;100.00;52772.34;6277167;22;19918;-69
2023/08/26 02:53:33;;;;;;;;;;;;;;;-140.72;100.00;52764.25;6277248;22;19943;-68
2023/08/26 02:55:58;;;;;;;;;;;;;;;-140.72;100.00;52762.22;6277406;22;20239;-68
2023/08/26 02:58:23;;;;;;;;;;;;;;;-140.72;100.00;52778.44;6277078;22;19973;-69
2023/08/26 03:00:49;;;;;;;;;;;;;;;-140.72;100.00;52750.03;6277600;22;20304;-68
2023/08/26 03:03:14;;;;;;;;;;;;;;;-140.72;100.00;52758.16;6275484;22;19913;-69
2023/08/26 03:05:39;;;;;;;;;;;;;;;-140.72;100.00;52776.41;6275501;22;19918;-69
2023/08/26 03:08:05;;;;;;;;;;;;;;;-140.72;100.00;52776.41;6301292;22;20299;-68
2023/08/26 03:10:31;;;;;;;;;;;;;;;-140.72;100.00;52713.50;6277317;22;19907;-68
2023/08/26 03:12:56;;;;;;;;;;;;;;;-140.72;100.00;52770.31;6277465;22;20643;-68
2023/08/26 03:15:22;;;;;;;;;;;;;;;-140.72;100.00;52750.03;6277145;22;19914;-68
2023/08/26 03:17:47;;;;;;;;;;;;;;;-140.72;100.00;52743.94;6277135;22;19911;-68
2023/08/26 03:20:12;;;;;;;;;;;;;;;-140.72;100.00;52802.78;6277112;22;19907;-68
2023/08/26 03:22:38;;;;;;;;;;;;;;;-140.72;100.00;52766.25;6276607;22;19958;-68
2023/08/26 03:25:04;;;;;;;;;;;;;;;-140.72;100.00;52798.72;6275695;22;19918;-69
2023/08/26 03:27:29;;;;;;;;;;;;;;;-140.72;100.00;52752.06;6277554;22;19911;-68
2023/08/26 03:29:54;;;;;;;;;;;;;;;-140.72;100.00;52768.28;6277333;22;19990;-69
2023/08/26 03:32:19;;;;;;;;;;;;;;;-140.72;100.00;52727.72;6276719;22;19911;-68
2023/08/26 03:34:45;;;;;;;;;;;;;;;-140.72;100.00;52739.88;6275714;22;19994;-68
2023/08/26 03:37:10;;;;;;;;;;;;;;;-140.72;100.00;52721.63;6277105;22;19965;-68
2023/08/26 03:39:35;;;;;;;;;;;;;;;-140.72;100.00;52817.00;6277289;22;19912;-69
2023/08/26 03:42:01;;;;;;;;;;;;;;;-140.72;100.00;52774.38;6276550;22;20294;-69
2023/08/26 03:44:26;;;;;;;;;;;;;;;-140.72;100.00;52756.13;6275750;22;19954;-69
2023/08/26 03:46:51;;;;;;;;;;;;;;;-140.72;100.00;52764.25;6276902;22;19915;-68
2023/08/26 03:49:17;;;;;;;;;;;;;;;-140.72;100.00;52772.34;6276621;22;20243;-68
2023/08/26 03:51:42;;;;;;;;;;;;;;;-140.72;100.00;52760.19;6275483;22;19921;-69
2023/08/26 03:54:07;;;;;;;;;;;;;;;-140.72;100.00;52756.13;6277291;22;20193;-69
2023/08/26 03:56:33;;;;;;;;;;;;;;;-140.72;100.00;52782.50;6276687;22;20343;-69
2023/08/26 03:58:58;;;;;;;;;;;;;;;-140.72;100.00;52764.25;6277128;22;19911;-69
2023/08/26 04:01:23;;;;;;;;;;;;;;;-140.72;100.00;52741.91;6276918;22;20355;-68
2023/08/26 04:03:52;;;;;;;;;;;;;;;-140.72;100.00;52806.84;6276635;22;19911;-69
2023/08/26 04:06:17;;;;;;;;;;;;;;;-140.72;100.00;52774.38;6277022;22;19915;-69
2023/08/26 04:08:43;;;;;;;;;;;;;;;-140.72;100.00;52760.19;6275458;22;19918;-68
2023/08/26 04:11:09;;;;;;;;;;;;;;;-140.72;100.00;52750.03;6275169;22;19988;-68
2023/08/26 04:13:34;;;;;;;;;;;;;;;-140.72;100.00;52764.25;6276807;22;19911;-69
2023/08/26 04:16:02;;;;;;;;;;;;;;;-140.72;100.00;52788.59;6275263;22;19930;-69
2023/08/26 04:18:28;;;;;;;;;;;;;;;-140.72;100.00;52768.28;6276985;22;19991;-69
2023/08/26 04:20:53;;;;;;;;;;;;;;;-140.72;100.00;52739.88;6276857;22;20243;-69
2023/08/26 04:23:27;;;;;;;;;;;;;;;-140.72;100.00;52766.25;6276475;22;20343;-69
2023/08/26 04:25:58;;;;;;;;;;;;;;;-140.72;100.00;52792.66;6276579;22;19947;-67
2023/08/26 04:28:23;;;;;;;;;;;;;;;-140.72;100.00;52780.47;6274988;22;19911;-69
2023/08/26 04:31:00;;;;;;;;;;;;;;;-140.72;100.00;52800.75;6276607;22;19911;-69
2023/08/26 04:33:25;;;;;;;;;;;;;;;-140.72;100.00;52817.00;6274448;22;19915;-73
2023/08/26 04:35:50;;;;;;;;;;;;;;;-140.72;100.00;52790.63;6275176;22;20247;-75
2023/08/26 04:38:16;;;;;;;;;;;;;;;-140.72;100.00;52788.59;6274753;22;19946;-75
2023/08/26 04:40:41;;;;;;;;;;;;;;;-140.72;100.00;52764.25;6275696;22;19961;-73
2023/08/26 04:43:30;;;;;;;;;;;;;;;-140.72;100.00;52756.13;6276525;22;19990;-74
2023/08/26 04:45:55;;;;;;;;;;;;;;;-140.72;100.00;52788.59;6276766;22;19918;-71
2023/08/26 04:48:30;;;;;;;;;;;;;;;-140.72;100.00;52784.53;6273964;22;19915;-72
2023/08/26 04:50:55;;;;;;;;;;;;;;;-140.72;100.00;52768.28;6277150;22;19911;-72
2023/08/26 04:53:23;;;;;;;;;;;;;;;-140.72;100.00;52796.72;6277194;22;20336;-73
2023/08/26 04:55:49;;;;;;;;;;;;;;;-140.72;100.00;52798.72;6277212;22;19911;-73
2023/08/26 04:58:14;;;;;;;;;;;;;;;-140.72;100.00;52762.22;6276598;22;19964;-73
2023/08/26 05:00:43;;;;;;;;;;;;;;;-140.72;100.00;52780.47;6276846;22;19911;-73
2023/08/26 05:03:09;;;;;;;;;;;;;;;-140.72;100.00;52743.94;6276608;22;19918;-71
2023/08/26 05:05:34;;;;;;;;;;;;;;;-140.72;100.00;52817.00;6276676;22;20324;-74
2023/08/26 05:07:59;;;;;;;;;;;;;;;-140.72;100.00;52778.44;6278767;22;19915;-70
2023/08/26 05:10:24;;;;;;;;;;;;;;;-140.72;100.00;52784.53;6279722;22;19912;-71
2023/08/26 05:12:50;;;;;;;;;;;;;;;-140.72;100.00;52817.00;6279895;22;19911;-70
2023/08/26 05:15:15;;;;;;;;;;;;;;;-140.72;100.00;52764.25;6278756;22;19911;-71
2023/08/26 05:17:40;;;;;;;;;;;;;;;-140.72;100.00;52800.75;6279817;22;19964;-71
2023/08/26 05:20:06;;;;;;;;;;;;;;;-140.72;100.00;52794.69;6303996;22;19911;-70
2023/08/26 05:22:31;;;;;;;;;;;;;;;-140.72;100.00;52748.00;6278839;22;20233;-71
2023/08/26 05:24:57;;;;;;;;;;;;;;;-140.72;100.00;52739.88;6279044;22;19957;-70
2023/08/26 05:27:22;;;;;;;;;;;;;;;-140.72;100.00;52743.94;6276651;22;19934;-70
2023/08/26 05:29:47;;;;;;;;;;;;;;;-140.72;100.00;52782.50;6302462;22;19918;-70
2023/08/26 05:32:13;;;;;;;;;;;;;;;-140.72;100.00;52752.06;6276069;22;19918;-70
2023/08/26 05:34:38;;;;;;;;;;;;;;;-140.72;100.00;52796.72;6278025;22;19921;-69
2023/08/26 05:37:03;;;;;;;;;;;;;;;-140.72;100.00;52784.53;6276609;22;19918;-69
2023/08/26 05:39:29;;;;;;;;;;;;;;;-140.72;100.00;52790.63;6278002;22;19918;-70
2023/08/26 05:41:54;;;;;;;;;;;;;;;-140.72;100.00;52772.34;6276099;22;19935;-69
2023/08/26 05:44:19;;;;;;;;;;;;;;;-140.72;100.00;52776.41;6277727;22;19947;-69
2023/08/26 05:46:46;;;;;;;;;;;;;;;-140.72;100.00;52750.03;6275593;22;20248;-69
2023/08/26 05:49:11;;;;;;;;;;;;;;;-140.72;100.00;52766.25;6277873;22;19911;-69
2023/08/26 05:51:37;;;;;;;;;;;;;;;-140.72;100.00;52766.25;6279459;22;19919;-69
2023/08/26 05:54:02;;;;;;;;;;;;;;;-140.72;100.00;52772.34;6302527;22;19997;-69
2023/08/26 05:56:27;;;;;;;;;;;;;;;-140.72;100.00;52741.91;6301974;22;19962;-69
2023/08/26 05:58:53;;;;;;;;;;;;;;;-140.72;100.00;52794.69;6277993;22;19911;-69
2023/08/26 06:01:18;;;;;;;;;;;;;;;-140.72;100.00;52760.19;6301552;22;19911;-68
2023/08/26 06:03:43;;;;;;;;;;;;;;;-140.72;100.00;52788.59;6275975;22;19965;-68
2023/08/26 06:06:09;;;;;;;;;;;;;;;-140.72;100.00;52750.03;6276821;22;19964;-69
2023/08/26 06:08:34;;;;;;;;;;;;;;;-140.72;100.00;52735.81;6275910;22;19911;-69
2023/08/26 06:10:59;;;;;;;;;;;;;;;-140.72;100.00;52752.06;6275633;22;19947;-68
2023/08/26 06:13:24;;;;;;;;;;;;;;;-140.72;100.00;52748.00;6275541;22;19911;-69
2023/08/26 06:15:54;;;;;;;;;;;;;;;-140.72;100.00;52741.91;6301723;22;20321;-68
2023/08/26 06:18:19;;;;;;;;;;;;;;;-140.72;100.00;52745.97;6277824;22;20004;-69
2023/08/26 06:20:44;;;;;;;;;;;;;;;-140.72;100.00;52719.59;6277636;22;19918;-69
2023/08/26 06:23:10;;;;;;;;;;;;;;;-140.72;100.00;52748.00;6277767;22;19915;-69
2023/08/26 06:25:35;;;;;;;;;;;;;;;-140.72;100.00;52703.34;6277471;22;19911;-69
2023/08/26 06:28:00;;;;;;;;;;;;;;;-140.72;100.00;52727.72;6277396;22;19911;-69
2023/08/26 06:30:25;;;;;;;;;;;;;;;-140.72;100.00;52719.59;6277538;22;20714;-69
2023/08/26 06:32:51;;;;;;;;;;;;;;;-140.72;100.00;52658.72;6277305;22;20329;-68
2023/08/26 06:35:16;;;;;;;;;;;;;;;-140.72;100.00;52723.66;6277426;22;19919;-69
2023/08/26 06:37:41;;;;;;;;;;;;;;;-140.72;100.00;52731.75;6277349;22;19915;-69
2023/08/26 06:40:06;;;;;;;;;;;;;;;-140.72;100.00;52672.91;6277266;22;19919;-69
2023/08/26 06:42:32;;;;;;;;;;;;;;;-140.72;100.00;52713.50;6275523;22;19946;-68
2023/08/26 06:44:58;;;;;;;;;;;;;;;-140.72;100.00;52662.78;6301346;22;19912;-69
2023/08/26 06:47:23;;;;;;;;;;;;;;;-140.72;100.00;52685.09;6275546;22;19985;-69
2023/08/26 06:49:48;;;;;;;;;;;;;;;-140.72;100.00;52729.75;6274943;22;20008;-68
2023/08/26 06:52:14;;;;;;;;;;;;;;;-140.72;100.00;52666.84;6277455;22;19918;-68
2023/08/26 06:54:39;;;;;;;;;;;;;;;-140.72;100.00;52715.53;6275287;22;19911;-68
2023/08/26 06:57:05;;;;;;;;;;;;;;;-140.72;100.00;52662.78;6277199;22;20382;-68
2023/08/26 06:59:30;;;;;;;;;;;;;;;-140.72;100.00;52664.81;6275353;22;19911;-69
2023/08/26 07:01:55;;;;;;;;;;;;;;;-140.72;100.00;52687.13;6276908;22;20297;-68
2023/08/26 07:04:21;;;;;;;;;;;;;;;-140.72;100.00;52695.25;6277204;22;19918;-69
2023/08/26 07:06:46;;;;;;;;;;;;;;;-140.72;100.00;52626.25;6301225;22;19982;-68
2023/08/26 07:09:12;;;;;;;;;;;;;;;-140.72;100.00;52672.91;6277117;22;19911;-69
2023/08/26 07:11:37;;;;;;;;;;;;;;;-140.72;100.00;52683.06;6275380;22;19918;-69
2023/08/26 07:14:02;;;;;;;;;;;;;;;-140.72;100.00;52685.09;6277658;22;20629;-70
2023/08/26 07:16:28;;;;;;;;;;;;;;;-140.72;100.00;52676.97;6275772;22;19960;-70
2023/08/26 07:18:53;;;;;;;;;;;;;;;-140.72;100.00;52723.66;6275946;22;19911;-71
2023/08/26 07:21:20;;;;;;;;;;;;;;;-140.72;100.00;52679.00;6275733;22;19911;-70
2023/08/26 07:24:09;;;;;;;;;;;;;;;-140.72;100.00;52674.94;6278106;22;19912;-70
2023/08/26 07:26:38;;;;;;;;;;;;;;;-140.72;100.00;52685.09;6276036;22;19911;-70
2023/08/26 07:29:03;;;;;;;;;;;;;;;-140.72;100.00;52731.75;6276795;22;19911;-71
2023/08/26 07:31:28;;;;;;;;;;;;;;;-140.72;100.00;52719.59;6277064;22;19995;-71
2023/08/26 07:33:55;;;;;;;;;;;;;;;-140.72;100.00;52699.31;6300748;22;19919;-70
2023/08/26 07:36:20;;;;;;;;;;;;;;;-140.72;100.00;52683.06;6277255;22;20240;-71
2023/08/26 07:38:45;;;;;;;;;;;;;;;-140.72;100.00;52705.38;6276818;22;19911;-70
2023/08/26 07:41:10;;;;;;;;;;;;;;;-140.72;100.00;52687.13;6276916;22;20388;-70
2023/08/26 07:43:37;;;;;;;;;;;;;;;-140.72;100.00;52727.72;6275150;22;20294;-71
2023/08/26 07:46:03;;;;;;;;;;;;;;;-140.72;100.00;52693.22;6277236;22;19989;-70
2023/08/26 07:48:28;;;;;;;;;;;;;;;-140.72;100.00;52672.91;6278485;22;19911;-71
2023/08/26 07:50:53;;;;;;;;;;;;;;;-140.72;100.00;52683.06;6282840;22;19911;-72
2023/08/26 07:53:18;;;;;;;;;;;;;;;-140.72;100.00;52640.44;6277295;22;19966;-68
2023/08/26 07:55:47;;;;;;;;;;;;;;;-140.72;100.00;52691.19;6277452;22;19922;-68
2023/08/26 07:58:13;;;;;;;;;;;;;;;-140.72;100.00;52691.19;6276639;22;19916;-68
2023/08/26 08:00:38;;;;;;;;;;;;;;;-140.72;100.00;52662.78;6276528;22;20331;-70
2023/08/26 08:03:03;;;;;;;;;;;;;;;-140.72;100.00;52721.63;6274968;22;19918;-69
2023/08/26 08:05:29;;;;;;;;;;;;;;;-140.72;100.00;52691.19;6276661;22;19919;-69
2023/08/26 08:07:54;;;;;;;;;;;;;;;-140.72;100.00;52636.38;6276497;22;19915;-70
2023/08/26 08:10:20;;;;;;;;;;;;;;;-140.72;100.00;52618.13;6276434;22;19985;-69
2023/08/26 08:12:45;;;;;;;;;;;;;;;-140.72;100.00;52638.41;6276368;22;19911;-69
2023/08/26 08:15:11;;;;;;;;;;;;;;;-140.72;100.00;52648.56;6276278;22;19915;-71
2023/08/26 08:17:37;;;;;;;;;;;;;;;-140.72;100.00;52622.19;6274764;22;20260;-74
2023/08/26 08:20:15;;;;;;;;;;;;;;;-140.72;100.00;52656.69;6301377;22;20333;-73
2023/08/26 08:22:43;;;;;;;;;;;;;;;-140.72;100.00;52648.56;6277029;22;19950;-71
2023/08/26 08:25:09;;;;;;;;;;;;;;;-140.72;100.00;52626.25;6276393;22;19912;-73
2023/08/26 08:27:35;;;;;;;;;;;;;;;-140.72;100.00;52601.91;6276631;22;19919;-72
2023/08/26 08:30:03;;;;;;;;;;;;;;;-140.72;100.00;52610.00;6278862;22;19939;-69
2023/08/26 08:32:28;;;;;;;;;;;;;;;-140.72;100.00;52585.66;6302806;22;19990;-70
2023/08/26 08:34:53;;;;;;;;;;;;;;;-140.72;100.00;52618.13;6279456;22;19911;-70
2023/08/26 08:37:19;;;;;;;;;;;;;;;-140.72;100.00;52624.22;6280784;22;19915;-69
2023/08/26 08:39:44;;;;;;;;;;;;;;;-140.72;100.00;52634.38;6281541;22;20037;-69
2023/08/26 08:42:13;;;;;;;;;;;;;;;-140.72;100.00;52636.38;6277171;22;19926;-69
2023/08/26 08:44:41;;;;;;;;;;;;;;;-140.72;100.00;52569.44;6277118;22;19911;-69
2023/08/26 08:47:06;;;;;;;;;;;;;;;-140.72;100.00;52607.97;6278078;22;19912;-70
2023/08/26 08:49:32;;;;;;;;;;;;;;;-140.72;100.00;52618.13;6278335;22;20007;-69
2023/08/26 08:51:58;;;;;;;;;;;;;;;-140.72;97.62;52575.50;6276566;22;19941;-69
2023/08/26 08:54:25;;;;;;;;;;;;;;;-140.72;84.24;52563.34;6275928;22;20237;-70
2023/08/26 08:56:51;;;;;;;;;;;;;;;-140.72;79.14;52577.53;6277937;22;19917;-68
2023/08/26 08:59:17;;;;;;;;;;;;;;;-140.72;79.67;52618.13;6276642;22;20001;-68
2023/08/26 09:01:43;;;;;;;;;;;;;;;-140.72;82.39;52577.53;6276861;22;19973;-69
2023/08/26 09:04:09;;;;;;;;;;;;;;;-140.72;80.88;52569.44;6303105;22;20328;-70
2023/08/26 09:06:34;;;;;;;;;;;;;;;-140.72;69.78;52518.69;6276378;22;20235;-70
2023/08/26 09:09:01;;;;;;;;;;;;;;;-140.72;56.90;52520.72;6278638;22;19912;-71
2023/08/26 09:11:27;;;;;;;;;;;;;;;-140.72;23.39;52474.06;6276824;22;19918;-68
2023/08/26 09:13:52;;;;;;;;;;;;;;;-140.72;0.00;52498.41;6278736;22;19915;-69
2023/08/26 09:16:26;;;;;;;;;;;;;;;-140.72;0.00;52500.44;6278143;22;19950;-70
2023/08/26 09:18:54;;;;;;;;;;;;;;;-140.72;0.00;52470.00;6278070;22;20376;-71
2023/08/26 09:21:20;;;;;;;;;;;;;;;-140.72;0.00;52467.97;6276024;22;19958;-70
2023/08/26 09:23:45;;;;;;;;;;;;;;;-140.72;0.00;52500.44;6278303;22;20329;-69
2023/08/26 09:26:10;;;;;;;;;;;;;;;-140.72;0.00;52492.31;6302519;22;19986;-68
2023/08/26 09:28:45;;;;;;;;;;;;;;;-140.72;0.00;52539.00;6277863;22;19918;-69
2023/08/26 09:31:11;;;;;;;;;;;;;;;-140.72;0.00;52514.63;6278687;22;19941;-69
2023/08/26 09:33:36;;;;;;;;;;;;;;;-140.72;0.00;52427.38;6278480;22;19926;-71
2023/08/26 09:36:01;;;;;;;;;;;;;;;-140.72;0.00;52419.28;6302852;22;20030;-70
2023/08/26 09:38:31;;;;;;;;;;;;;;;-140.72;0.00;52394.91;6278941;22;19915;-68
2023/08/26 09:41:00;;;;;;;;;;;;;;;-140.72;0.00;52421.28;6276659;22;19918;-69
2023/08/26 09:43:25;;;;;;;;;;;;;;;-140.72;0.00;52409.13;6303476;22;19912;-69
2023/08/26 09:45:54;;;;;;;;;;;;;;;-140.72;0.00;52451.72;6279175;22;20331;-70
2023/08/26 09:48:23;;;;;;;;;;;;;;;-140.72;0.00;52415.22;6277883;22;19911;-69
2023/08/26 09:50:48;;;;;;;;;;;;;;;-140.72;0.00;52496.38;6276800;22;19912;-69
2023/08/26 09:53:25;;;;;;;;;;;;;;;-140.72;0.00;52583.63;6301925;22;20338;-69
2023/08/26 09:55:51;;;;;;;;;;;;;;;-140.72;100.00;52618.13;6276579;22;20377;-69
2023/08/26 09:58:16;;;;;;;;;;;;;;;-140.72;100.00;52593.78;6277731;22;20006;-72
2023/08/26 10:00:44;;;;;;;;;;;;;;;-140.72;100.00;52616.09;6278046;22;19911;-69
2023/08/26 10:03:10;;;;;;;;;;;;;;;-140.72;100.00;52626.25;6278185;22;19938;-70
2023/08/26 10:05:39;;;;;;;;;;;;;;;-140.72;100.00;52638.41;6278046;22;19946;-69
2023/08/26 10:08:08;;;;;;;;;;;;;;;-140.72;100.00;52593.78;6277612;22;19934;-70
2023/08/26 10:10:37;;;;;;;;;;;;;;;-140.72;100.00;52672.91;6277900;22;20377;-69
2023/08/26 10:13:04;;;;;;;;;;;;;;;-140.72;100.00;52551.16;6277897;22;19911;-70
2023/08/26 10:15:32;;;;;;;;;;;;;;;-140.72;100.00;52472.03;6277884;22;19912;-69
2023/08/26 10:18:00;;;;;;;;;;;;;;;-140.72;41.51;52486.22;6277966;22;20032;-69
2023/08/26 10:20:26;;;;;;;;;;;;;;;-140.72;0.00;52506.53;6277526;22;19917;-68
2023/08/26 10:22:51;;;;;;;;;;;;;;;-140.72;0.00;52541.03;6303298;22;20207;-69
2023/08/26 10:25:17;;;;;;;;;;;;;;;-140.72;13.08;52591.75;6278816;22;19915;-70
2023/08/26 10:27:43;;;;;;;;;;;;;;;-140.72;27.72;52585.66;6277020;22;20256;-69
2023/08/26 10:30:08;;;;;;;;;;;;;;;-140.72;50.89;52601.91;6277725;22;19911;-68
2023/08/26 10:32:42;;;;;;;;;;;;;;;-140.72;63.71;52510.59;6275374;22;19915;-70
2023/08/26 10:35:11;;;;;;;;;;;;;;;-140.72;28.43;52439.56;6276093;22;19935;-68
2023/08/26 10:37:36;;;;;;;;;;;;;;;-140.72;0.00;52358.41;6275993;22;19987;-69
2023/08/26 10:40:08;;;;;;;;;;;;;;;-140.72;0.00;52313.75;6276990;22;19911;-70
2023/08/26 10:42:34;;;;;;;;;;;;;;;-140.72;0.00;52421.28;6276120;22;19908;-68
2023/08/26 10:45:01;;;;;;;;;;;;;;;-140.72;0.00;52384.78;6275409;22;19919;-68
2023/08/26 10:47:37;;;;;;;;;;;;;;;-140.72;0.00;52303.59;6277834;22;20034;-69
2023/08/26 10:50:32;;;;;;;;;;;;;;;-140.72;0.00;52277.22;6275692;22;19919;-68
2023/08/26 10:52:58;;;;;;;;;;;;;;;-140.72;0.00;52246.78;6257782;22;19915;-69
2023/08/26 10:55:32;;;;;;;;;;;;;;;-140.72;0.00;52238.69;6275853;22;19918;-69
2023/08/26 10:58:01;;;;;;;;;;;;;;;-140.72;0.00;52173.75;6275636;22;19977;-70
2023/08/26 11:00:27;;;;;;;;;;;;;;;-140.72;0.00;52311.72;6277643;22;20299;-69
2023/08/26 11:02:53;;;;;;;;;;;;;;;-140.72;0.00;52380.72;6277182;22;19916;-70
2023/08/26 11:05:18;;;;;;;;;;;;;;;-140.72;0.00;52398.97;6277428;22;20085;-70
2023/08/26 11:07:44;;;;;;;;;;;;;;;-140.72;0.00;52348.25;6277085;22;19915;-69
2023/08/26 11:10:23;;;;;;;;;;;;;;;-140.72;0.00;52388.84;6277086;22;19997;-68
2023/08/26 11:12:49;;;;;;;;;;;;;;;-140.72;0.00;52309.69;6275588;22;20016;-69
2023/08/26 11:15:14;;;;;;;;;;;;;;;-140.72;0.00;52246.78;6276994;22;20327;-69
2023/08/26 11:17:39;;;;;;;;;;;;;;;-140.72;0.00;52336.06;6277033;22;20373;-69
2023/08/26 11:20:05;;;;;;;;;;;;;;;-140.72;0.00;52382.75;6277114;22;19912;-68
2023/08/26 11:22:30;;;;;;;;;;;;;;;-140.72;0.00;52413.19;6301083;22;20010;-69
2023/08/26 11:24:55;;;;;;;;;;;;;;;-140.72;0.00;52427.38;6276653;22;20045;-69
2023/08/26 11:27:21;;;;;;;;;;;;;;;-140.72;0.00;52348.25;6275442;22;19990;-70
2023/08/26 11:29:46;;;;;;;;;;;;;;;-140.72;0.00;52336.06;6276164;22;19915;-69
2023/08/26 11:32:11;;;;;;;;;;;;;;;-140.72;0.00;52427.38;6302917;22;19998;-69
2023/08/26 11:34:37;;;;;;;;;;;;;;;-140.72;0.00;52467.97;6278742;22;19919;-69
2023/08/26 11:37:02;;;;;;;;;;;;;;;-140.72;0.00;52536.97;6276886;22;19930;-69
2023/08/26 11:39:31;;;;;;;;;;;;;;;-140.72;0.00;52545.06;6277132;22;19917;-68
2023/08/26 11:41:57;;;;;;;;;;;;;;;-140.72;0.00;52555.22;6274982;22;19916;-70
2023/08/26 11:44:22;;;;;;;;;;;;;;;-140.72;0.00;52551.16;6301039;22;20010;-69
2023/08/26 11:46:48;;;;;;;;;;;;;;;-140.72;0.00;52536.97;6300680;22;20299;-68
2023/08/26 11:49:14;;;;;;;;;;;;;;;-140.72;0.00;52545.06;6276682;22;19918;-68
2023/08/26 11:51:40;;;;;;;;;;;;;;;-140.72;0.00;52547.09;6301101;22;20342;-68
2023/08/26 11:54:05;;;;;;;;;;;;;;;-140.72;0.00;52539.00;6276928;22;19911;-68
2023/08/26 11:56:30;;;;;;;;;;;;;;;-140.72;0.00;52512.59;6276350;22;19911;-70
2023/08/26 11:58:55;;;;;;;;;;;;;;;-140.72;0.00;52539.00;6277189;22;19918;-70
2023/08/26 12:01:22;;;;;;;;;;;;;;;-140.72;0.00;52569.44;6274342;22;19911;-69
2023/08/26 12:03:48;;;;;;;;;;;;;;;-140.72;0.00;52545.06;6274609;22;19993;-69
2023/08/26 12:06:16;;;;;;;;;;;;;;;-140.72;0.00;52510.59;6276556;22;19911;-69
2023/08/26 12:08:42;;;;;;;;;;;;;;;-140.72;0.00;52534.94;6274997;22;19984;-70
2023/08/26 12:11:08;;;;;;;;;;;;;;;-140.72;0.00;52500.44;6275006;22;19919;-69
2023/08/26 12:13:40;;;;;;;;;;;;;;;-140.72;0.00;52463.91;6276653;22;20325;-70
2023/08/26 12:16:05;;;;;;;;;;;;;;;-140.72;0.00;52313.75;6274959;22;19918;-68
2023/08/26 12:18:31;;;;;;;;;;;;;;;-140.72;0.00;52325.94;6276525;22;19939;-69